Time;durP1;ratioP1;P1;durP2;ratioP2;P2;SDS_P1;SDS_P2;PMS_P1;PMS_P2;Temp;Humidity;BMP_temperature;BMP_pressure;BME280_temperature;BME280_humidity;BME280_pressure;Samples;Min_cycle;Max_cycle;Signal;HPM_P1;HPM_P2
2022/05/20 00:00:54;;;;;;;5.53;2.88;;;;;;;15.56;55.59;101486.88;4845479;29;20040;-72
2022/05/20 00:03:21;;;;;;;4.82;2.17;;;;;;;15.49;57.09;101461.34;4849918;29;20061;-73
2022/05/20 00:05:48;;;;;;;13.43;3.80;;;;;;;15.61;56.66;101495.69;4845194;29;20057;-73
2022/05/20 00:08:14;;;;;;;5.85;2.83;;;;;;;15.19;57.02;101436.72;4843569;29;20057;-74
2022/05/20 00:10:40;;;;;;;7.88;2.85;;;;;;;15.40;57.96;101465.78;4844552;29;20140;-74
2022/05/20 00:13:06;;;;;;;4.50;2.20;;;;;;;15.74;58.07;101481.56;4854277;29;20045;-73
2022/05/20 00:15:33;;;;;;;10.18;3.13;;;;;;;15.73;56.95;101494.78;4847920;29;20504;-73
2022/05/20 00:17:59;;;;;;;5.47;2.60;;;;;;;15.46;59.15;101474.59;4847410;29;20114;-73
2022/05/20 00:20:27;;;;;;;15.07;3.67;;;;;;;15.29;58.63;101441.13;4844625;29;20057;-73
2022/05/20 00:22:57;;;;;;;6.05;2.95;;;;;;;15.45;56.68;101483.38;4851092;29;20086;-74
2022/05/20 00:28:08;;;;;;;6.05;3.13;;;;;;;15.08;58.47;101431.50;4837623;29;20197;-73
2022/05/20 00:30:34;;;;;;;9.40;2.97;;;;;;;15.39;57.20;101495.75;4863768;29;20109;-74
2022/05/20 00:33:00;;;;;;;13.82;3.70;;;;;;;15.11;56.75;101460.56;4848310;29;20121;-74
2022/05/20 00:35:27;;;;;;;7.55;3.05;;;;;;;15.02;56.21;101441.19;4847964;29;20076;-72
2022/05/20 00:37:53;;;;;;;4.50;2.58;;;;;;;15.24;57.79;101498.44;4846983;29;20056;-74
2022/05/20 00:40:21;;;;;;;8.32;2.10;;;;;;;15.19;57.21;101442.03;4845234;29;20042;-73
2022/05/20 00:42:49;;;;;;;10.50;3.50;;;;;;;15.14;56.18;101451.72;4843785;29;20043;-74
2022/05/20 00:45:15;;;;;;;6.43;2.83;;;;;;;15.01;58.16;101452.63;4843473;29;20061;-74
2022/05/20 00:47:42;;;;;;;5.70;3.17;;;;;;;14.94;58.95;101446.50;4856693;29;20491;-73
2022/05/20 00:50:17;;;;;;;9.40;3.65;;;;;;;15.17;58.81;101494.03;4856022;29;20201;-75
2022/05/20 00:52:48;;;;;;;4.80;2.80;;;;;;;15.36;57.78;101492.25;4851980;29;20045;-74
2022/05/20 00:55:18;;;;;;;4.90;2.90;;;;;;;15.00;58.20;101443.81;4845480;29;20057;-73
2022/05/20 00:58:00;;;;;;;6.63;3.67;;;;;;;15.07;60.89;101458.78;4844649;29;20101;-73
2022/05/20 01:00:29;;;;;;;12.93;4.40;;;;;;;14.80;62.73;101445.59;4843508;29;20406;-73
2022/05/20 01:02:59;;;;;;;7.88;3.38;;;;;;;15.06;65.50;101496.69;4844641;29;20114;-75
2022/05/20 01:05:29;;;;;;;7.68;2.97;;;;;;;14.74;63.09;101462.34;4854931;29;20065;-73
2022/05/20 01:08:02;;;;;;;5.43;3.03;;;;;;;14.61;63.39;101442.09;4845672;29;20049;-75
2022/05/20 01:10:29;;;;;;;5.88;2.83;;;;;;;14.67;65.96;101460.59;4849135;29;20045;-72
2022/05/20 01:12:57;;;;;;;4.80;2.53;;;;;;;14.81;63.67;101498.47;4864398;29;20044;-73
2022/05/20 01:15:23;;;;;;;8.25;2.88;;;;;;;14.53;66.10;101447.34;4844481;29;20576;-73
2022/05/20 01:17:54;;;;;;;4.50;2.58;;;;;;;14.32;65.49;101424.44;4855778;29;20049;-74
2022/05/20 01:20:27;;;;;;;10.48;3.90;;;;;;;14.22;64.92;101452.59;4845496;29;20076;-73
2022/05/20 01:22:53;;;;;;;11.20;2.72;;;;;;;14.60;62.87;101479.97;4845407;29;20049;-73
2022/05/20 01:25:20;;;;;;;5.35;3.17;;;;;;;14.41;65.27;101434.16;4844358;29;23407;-74
2022/05/20 01:27:46;;;;;;;6.03;3.53;;;;;;;14.55;65.66;101501.97;4848321;29;20033;-73
2022/05/20 01:30:16;;;;;;;7.13;2.30;;;;;;;14.54;65.48;101489.66;4846099;29;20053;-73
2022/05/20 01:32:42;;;;;;;7.97;2.97;;;;;;;14.51;64.83;101486.97;4862823;29;20061;-74
2022/05/20 01:35:21;;;;;;;6.53;2.78;;;;;;;14.37;66.59;101472.84;4849137;29;20148;-73
2022/05/20 01:37:46;;;;;;;4.72;3.03;;;;;;;14.20;65.80;101433.25;4862460;29;20517;-73
2022/05/20 01:40:14;;;;;;;10.05;4.88;;;;;;;14.39;67.38;101465.81;4864346;29;20046;-73
2022/05/20 01:43:01;;;;;;;5.03;2.95;;;;;;;14.00;65.99;101434.94;4851967;29;20049;-74
2022/05/20 01:45:37;;;;;;;10.32;3.80;;;;;;;14.34;63.63;101471.09;4846173;29;20064;-74
2022/05/20 01:48:13;;;;;;;4.63;2.40;;;;;;;14.06;63.81;101427.06;4844635;29;20057;-73
2022/05/20 01:50:45;;;;;;;7.78;3.38;;;;;;;14.13;64.88;101453.47;4848806;29;20061;-74
2022/05/20 01:53:24;;;;;;;8.82;4.10;;;;;;;13.83;65.57;101443.69;4843980;29;20089;-74
2022/05/20 01:55:57;;;;;;;6.50;3.15;;;;;;;13.76;65.76;101443.69;4844037;29;20053;-73
2022/05/20 01:58:47;;;;;;;10.43;3.70;;;;;;;14.09;66.15;101483.38;4845481;29;20061;-73
2022/05/20 02:01:43;;;;;;;7.95;4.25;;;;;;;14.00;67.40;101491.28;4843757;29;20054;-73
2022/05/20 02:04:19;;;;;;;8.98;3.55;;;;;;;13.71;69.77;101444.53;4851084;29;20050;-73
2022/05/20 02:06:54;;;;;;;7.25;4.15;;;;;;;13.86;68.92;101443.72;4849582;29;20031;-74
2022/05/20 02:09:37;;;;;;;5.85;3.05;;;;;;;13.97;69.59;101487.72;4843467;29;20494;-73
2022/05/20 02:12:04;;;;;;;8.27;3.85;;;;;;;13.76;70.24;101472.69;4848393;29;20057;-73
2022/05/20 02:14:40;;;;;;;10.45;5.00;;;;;;;13.49;70.31;101450.63;4847522;29;20495;-75
2022/05/20 02:17:18;;;;;;;6.20;3.40;;;;;;;13.33;69.61;101460.19;4860740;29;20053;-73
2022/05/20 02:19:52;;;;;;;6.22;3.35;;;;;;;13.50;71.42;101487.53;4852178;29;20123;-73
2022/05/20 02:22:27;;;;;;;11.40;3.83;;;;;;;13.18;70.40;101468.88;4851760;29;20593;-73
2022/05/20 02:24:54;;;;;;;18.13;4.47;;;;;;;13.29;70.04;101482.13;4848148;29;20040;-74
2022/05/20 02:27:26;;;;;;;11.15;3.70;;;;;;;13.60;71.99;101487.56;4847609;29;20117;-73
2022/05/20 02:30:24;;;;;;;8.55;3.67;;;;;;;13.67;71.49;101482.34;4849227;29;20064;-73
2022/05/20 02:32:56;;;;;;;8.18;4.93;;;;;;;13.75;69.92;101485.00;4847072;29;20050;-72
2022/05/20 02:35:23;;;;;;;7.13;3.30;;;;;;;13.61;71.61;101492.88;4848870;29;20483;-72
2022/05/20 02:37:48;;;;;;;6.00;3.63;;;;;;;12.84;72.60;101468.63;4848805;29;20059;-72
2022/05/20 02:40:19;;;;;;;11.15;5.22;;;;;;;13.10;73.16;101496.91;4835704;29;20057;-72
2022/05/20 02:42:47;;;;;;;9.65;4.32;;;;;;;12.84;72.37;101458.09;4848927;29;20093;-72
2022/05/20 02:45:13;;;;;;;7.03;3.72;;;;;;;12.84;71.42;101459.84;4851277;29;20060;-72
2022/05/20 02:47:46;;;;;;;9.82;4.78;;;;;;;12.80;72.28;101465.94;4848181;29;20144;-74
2022/05/20 02:50:12;;;;;;;9.77;4.55;;;;;;;12.61;71.54;101457.91;4849796;29;20052;-72
2022/05/20 02:52:38;;;;;;;8.13;3.83;;;;;;;12.99;73.83;101493.31;4849645;29;20510;-73
2022/05/20 02:55:06;;;;;;;7.32;4.72;;;;;;;12.84;74.19;101465.09;4850090;29;20048;-73
2022/05/20 02:57:32;;;;;;;11.15;4.32;;;;;;;13.13;72.66;101464.44;4848523;29;20120;-72
2022/05/20 03:05:26;;;;;;;10.38;4.05;;;;;;;12.82;74.68;101440.50;4849630;29;20048;-72
2022/05/20 03:07:51;;;;;;;8.52;4.35;;;;;;;12.55;74.90;101443.78;4848315;29;20049;-72
2022/05/20 03:10:18;;;;;;;14.90;4.40;;;;;;;12.95;75.91;101502.97;4847843;29;20133;-74
2022/05/20 03:12:43;;;;;;;8.57;3.83;;;;;;;12.72;76.16;101491.34;4849335;29;20559;-73
2022/05/20 03:15:12;;;;;;;10.27;4.78;;;;;;;12.93;74.27;101501.19;4846120;29;20165;-73
2022/05/20 03:17:40;;;;;;;6.85;4.60;;;;;;;12.88;73.87;101467.78;4845694;29;20080;-72
2022/05/20 03:20:08;;;;;;;11.00;4.60;;;;;;;12.80;73.92;101481.75;4857702;29;20405;-74
2022/05/20 03:22:36;;;;;;;9.93;4.82;;;;;;;13.17;74.22;101518.94;4849883;29;20053;-73
2022/05/20 03:25:04;;;;;;;7.35;4.55;;;;;;;12.88;74.29;101466.91;4852592;29;20040;-73
2022/05/20 03:27:31;;;;;;;14.40;5.93;;;;;;;12.94;73.32;101477.47;4844926;29;20569;-73
2022/05/20 03:29:57;;;;;;;8.32;4.82;;;;;;;13.19;73.44;101519.81;4851363;29;20045;-73
2022/05/20 03:32:22;;;;;;;11.65;4.90;;;;;;;13.01;71.84;101474.00;4848679;29;20141;-73
2022/05/20 03:34:48;;;;;;;9.68;5.03;;;;;;;13.03;71.77;101461.72;4844731;29;20113;-73
2022/05/20 03:37:15;;;;;;;8.88;4.18;;;;;;;13.38;70.07;101478.69;4858771;29;20755;-73
2022/05/20 03:39:41;;;;;;;8.07;4.50;;;;;;;13.29;71.14;101490.91;4848548;29;20029;-73
2022/05/20 03:42:07;;;;;;;9.05;5.03;;;;;;;13.06;71.23;101447.69;4851449;29;20123;-73
2022/05/20 03:44:33;;;;;;;17.80;6.07;;;;;;;13.38;73.26;101486.59;4847800;29;20136;-73
2022/05/20 03:46:59;;;;;;;13.18;6.60;;;;;;;13.44;74.07;101510.38;4843680;29;20110;-73
2022/05/20 03:49:27;;;;;;;8.23;5.38;;;;;;;13.35;72.25;101490.09;4848230;29;20543;-73
2022/05/20 03:51:55;;;;;;;15.13;6.03;;;;;;;13.35;71.04;101454.94;4845389;29;20048;-73
2022/05/20 03:54:25;;;;;;;15.68;5.63;;;;;;;13.67;72.44;101498.19;4848320;29;20128;-73
2022/05/20 03:56:51;;;;;;;9.48;4.90;;;;;;;13.77;68.12;101514.06;4843621;29;20042;-74
2022/05/20 03:59:22;;;;;;;9.35;4.47;;;;;;;13.40;67.07;101472.53;4865992;29;20068;-73
2022/05/20 04:01:58;;;;;;;11.32;4.72;;;;;;;13.85;66.57;101517.59;4845934;29;20498;-74
2022/05/20 04:04:33;;;;;;;6.22;4.00;;;;;;;13.65;67.24;101473.53;4845155;29;20169;-75
2022/05/20 04:07:02;;;;;;;8.98;4.30;;;;;;;14.04;68.11;101524.69;4856834;29;20045;-72
2022/05/20 04:09:28;;;;;;;7.28;3.33;;;;;;;14.15;68.16;101540.56;4862238;29;20113;-73
2022/05/20 04:11:58;;;;;;;16.58;5.60;;;;;;;14.09;69.37;101530.91;4846382;29;20054;-73
2022/05/20 04:14:28;;;;;;;12.18;5.28;;;;;;;13.83;70.41;101477.13;4859076;29;20095;-74
2022/05/20 04:16:57;;;;;;;10.10;3.80;;;;;;;14.21;64.39;101537.06;4844544;29;20072;-73
2022/05/20 04:19:30;;;;;;;10.20;4.35;;;;;;;14.22;65.67;101526.53;4832064;29;20217;-74
2022/05/20 04:22:05;;;;;;;10.95;4.80;;;;;;;14.37;64.72;101554.72;4845779;29;20130;-73
2022/05/20 04:24:30;;;;;;;11.63;3.83;;;;;;;14.12;61.68;101488.66;4842817;29;20030;-73
2022/05/20 04:26:56;;;;;;;12.18;2.90;;;;;;;14.46;63.14;101545.94;4840138;29;20098;-74
2022/05/20 04:29:22;;;;;;;8.63;3.83;;;;;;;14.54;64.78;101531.03;4846041;29;20644;-74
2022/05/20 04:31:50;;;;;;;7.80;4.00;;;;;;;14.36;66.36;101519.50;4856955;29;20073;-72
2022/05/20 04:34:17;;;;;;;8.68;4.80;;;;;;;14.71;64.83;101542.50;4842184;29;20048;-73
2022/05/20 04:36:43;;;;;;;7.65;4.88;;;;;;;14.47;66.27;101498.41;4845057;29;20041;-72
2022/05/20 04:39:09;;;;;;;13.23;4.72;;;;;;;14.78;67.50;101540.75;4839953;29;20519;-72
2022/05/20 04:47:09;;;;;;;7.07;4.18;;;;;;;14.81;62.58;101498.47;4844448;29;20068;-74
2022/05/20 04:49:42;;;;;;;7.25;3.35;;;;;;;14.86;60.97;101504.63;4859194;29;20049;-74
2022/05/20 04:52:08;;;;;;;10.05;4.50;;;;;;;14.90;60.38;101505.50;4842713;29;20514;-73
2022/05/20 04:54:49;;;;;;;21.83;5.65;;;;;;;14.96;62.02;101509.03;4845824;29;20454;-74
2022/05/20 04:57:36;;;;;;;12.05;5.63;;;;;;;15.08;59.03;101500.22;4846132;29;20553;-74
2022/05/20 05:00:12;;;;;;;9.90;5.38;;;;;;;15.49;61.07;101546.84;4842661;29;20049;-73
2022/05/20 05:02:39;;;;;;;13.95;5.95;;;;;;;15.44;59.42;101521.31;4844377;29;20085;-74
2022/05/20 05:05:07;;;;;;;8.85;5.68;;;;;;;15.78;58.76;101549.47;4840912;29;20044;-74
2022/05/20 05:07:38;;;;;;;10.02;4.78;;;;;;;15.85;60.50;101549.44;4848970;29;21617;-73
2022/05/20 05:10:04;;;;;;;17.17;6.00;;;;;;;15.82;58.63;101516.81;4845695;29;20126;-74
2022/05/20 05:12:30;;;;;;;11.38;4.63;;;;;;;16.10;55.37;101514.03;4844339;29;20038;-74
2022/05/20 05:14:56;;;;;;;13.32;6.05;;;;;;;16.43;56.77;101536.78;4840652;29;20057;-74
2022/05/20 05:20:16;;;;;;;17.48;7.40;;;;;;;16.88;54.56;101566.59;4844398;29;20064;-73
2022/05/20 05:22:41;;;;;;;11.15;7.70;;;;;;;17.20;54.59;101564.56;4847235;29;20506;-74
2022/05/20 05:25:08;;;;;;;25.05;9.02;;;;;;;17.05;54.07;101517.84;4844854;29;20058;-73
2022/05/20 05:27:35;;;;;;;15.13;8.48;;;;;;;17.01;54.32;101532.88;4850848;29;20065;-73
2022/05/20 05:30:02;;;;;;;15.13;7.68;;;;;;;17.18;54.14;101534.50;4858235;29;20080;-72
2022/05/20 05:32:28;;;;;;;15.80;9.48;;;;;;;17.70;53.04;101561.41;4850706;29;20049;-73
2022/05/20 05:34:55;;;;;;;9.90;7.55;;;;;;;17.53;53.75;101528.84;4834146;29;20061;-73
2022/05/20 05:37:25;;;;;;;12.73;7.78;;;;;;;17.88;51.51;101548.84;4838484;29;20064;-75
2022/05/20 05:39:51;;;;;;;11.32;8.18;;;;;;;17.88;51.01;101520.50;4857826;29;20057;-73
2022/05/20 05:42:20;;;;;;;18.13;7.80;;;;;;;18.04;50.58;101520.31;4850217;29;20057;-73
2022/05/20 05:44:46;;;;;;;22.83;7.95;;;;;;;18.09;50.09;101519.34;4837377;29;20057;-74
2022/05/20 05:47:12;;;;;;;17.95;7.95;;;;;;;18.17;51.14;101505.06;4835779;29;20053;-73
2022/05/20 05:49:38;;;;;;;24.75;7.93;;;;;;;18.47;50.47;101548.94;4851056;29;20217;-73
2022/05/20 05:52:07;;;;;;;19.05;7.90;;;;;;;18.76;49.15;101559.16;4842617;29;20038;-73
2022/05/20 05:54:33;;;;;;;18.85;7.60;;;;;;;18.82;49.86;101519.19;4850705;29;20043;-73
2022/05/20 05:56:59;;;;;;;16.77;9.55;;;;;;;19.03;49.05;101525.06;4844145;29;20070;-74
2022/05/20 05:59:25;;;;;;;13.73;7.10;;;;;;;19.15;50.58;101554.09;4853482;29;20049;-74
2022/05/20 06:01:57;;;;;;;19.10;10.20;;;;;;;18.97;48.84;101502.09;4849028;29;20045;-74
2022/05/20 06:04:24;;;;;;;20.63;10.40;;;;;;;19.33;50.46;101534.28;4848576;29;20677;-73
2022/05/20 06:06:51;;;;;;;16.63;8.27;;;;;;;19.19;47.10;101503.47;4845852;29;20045;-73
2022/05/20 06:09:17;;;;;;;20.80;10.20;;;;;;;19.43;49.37;101522.53;4844425;29;20033;-74
2022/05/20 06:11:43;;;;;;;19.20;9.73;;;;;;;19.77;47.42;101541.44;4846633;29;20046;-73
2022/05/20 06:14:09;;;;;;;11.52;7.57;;;;;;;19.85;46.82;101524.44;4848194;29;20126;-73
2022/05/20 06:16:35;;;;;;;17.83;9.23;;;;;;;19.71;48.55;101514.91;4844563;29;20053;-74
2022/05/20 06:19:00;;;;;;;12.15;7.13;;;;;;;19.66;47.16;101548.72;4849254;29;20048;-73
2022/05/20 06:21:26;;;;;;;25.70;8.25;;;;;;;19.73;45.05;101514.91;4847179;29;20140;-75
2022/05/20 06:23:52;;;;;;;12.30;7.60;;;;;;;19.93;44.74;101544.69;4844420;29;20108;-74
2022/05/20 06:26:18;;;;;;;11.50;6.97;;;;;;;20.09;43.64;101504.38;4844655;29;20110;-74
2022/05/20 06:28:45;;;;;;;14.43;8.57;;;;;;;20.00;43.29;101506.34;4862113;29;20068;-74
2022/05/20 06:31:11;;;;;;;11.32;6.75;;;;;;;20.51;45.36;101541.63;4847063;29;20060;-74
2022/05/20 06:33:37;;;;;;;14.25;7.57;;;;;;;20.63;43.66;101539.59;4849572;29;20030;-74
2022/05/20 06:41:31;;;;;;;11.65;5.03;;;;;;;20.82;43.11;101549.84;4855406;29;20442;-74
2022/05/20 06:43:57;;;;;;;9.60;5.05;;;;;;;20.72;39.90;101511.84;4844451;29;20441;-74
2022/05/20 06:46:27;;;;;;;6.90;3.80;;;;;;;21.00;39.41;101548.47;4848112;29;20057;-74
2022/05/20 06:48:55;;;;;;;10.55;3.55;;;;;;;21.00;39.08;101541.38;4845470;29;20045;-74
2022/05/20 06:51:25;;;;;;;14.23;4.45;;;;;;;20.89;41.52;101521.22;4846914;29;20478;-74
2022/05/20 06:53:52;;;;;;;12.75;3.75;;;;;;;20.93;38.15;101528.22;4845243;29;20077;-74
2022/05/20 06:56:20;;;;;;;10.80;4.15;;;;;;;21.02;39.49;101544.00;4861574;29;20065;-74
2022/05/20 06:58:46;;;;;;;5.95;3.70;;;;;;;21.23;38.21;101546.09;4846698;29;20061;-74
2022/05/20 07:01:13;;;;;;;10.65;4.63;;;;;;;21.25;38.11;101546.06;4849717;29;20050;-74
2022/05/20 07:03:39;;;;;;;7.32;4.25;;;;;;;21.37;38.40;101539.53;4864356;29;20337;-75
2022/05/20 07:06:07;;;;;;;9.70;4.65;;;;;;;21.48;38.18;101546.38;4849616;29;20796;-74
2022/05/20 07:08:35;;;;;;;14.52;4.47;;;;;;;21.62;37.57;101548.66;4839153;29;20109;-73
2022/05/20 07:11:02;;;;;;;8.82;3.83;;;;;;;21.76;37.74;101544.72;4847821;29;20088;-73
2022/05/20 07:13:29;;;;;;;20.08;3.28;;;;;;;21.62;36.18;101540.66;4846863;29;20110;-75
2022/05/20 07:15:57;;;;;;;13.98;3.08;;;;;;;21.50;35.06;101541.00;4841046;29;20490;-74
2022/05/20 07:18:28;;;;;;;9.55;2.65;;;;;;;21.23;34.01;101511.41;4845754;29;20041;-74
2022/05/20 07:21:01;;;;;;;3.75;2.03;;;;;;;21.61;33.78;101556.72;4845006;29;20981;-75
2022/05/20 07:23:29;;;;;;;8.00;2.25;;;;;;;21.37;32.91;101515.50;4842416;29;20049;-76
2022/05/20 07:25:55;;;;;;;5.80;2.20;;;;;;;21.67;33.59;101553.88;4849875;29;20041;-74
2022/05/20 07:28:21;;;;;;;5.40;2.75;;;;;;;21.59;34.87;101529.19;4859132;29;20862;-73
2022/05/20 07:30:47;;;;;;;11.68;3.55;;;;;;;21.86;32.68;101523.03;4845606;29;20038;-73
2022/05/20 07:33:13;;;;;;;9.80;3.25;;;;;;;22.29;30.87;101551.22;4846784;29;20189;-73
2022/05/20 07:35:39;;;;;;;16.38;2.95;;;;;;;22.19;32.49;101530.09;4846650;29;20121;-73
2022/05/20 07:38:07;;;;;;;10.23;2.78;;;;;;;22.12;31.96;101526.72;4841977;29;20045;-74
2022/05/20 07:40:34;;;;;;;16.52;4.85;;;;;;;21.90;34.43;101507.78;4845699;29;20112;-74
2022/05/20 07:43:03;;;;;;;8.13;3.80;;;;;;;21.93;34.51;101494.34;4847200;29;20309;-73
2022/05/20 07:45:29;;;;;;;11.57;4.28;;;;;;;22.46;34.20;101553.34;4849046;29;20105;-74
2022/05/20 07:47:55;;;;;;;10.35;3.90;;;;;;;22.58;35.88;101543.19;4847006;29;20128;-75
2022/05/20 07:50:21;;;;;;;11.93;4.47;;;;;;;22.39;35.08;101498.31;4843207;29;20190;-75
2022/05/20 07:55:37;;;;;;;19.73;5.57;;;;;;;22.46;35.76;101515.03;4847762;29;20057;-74
2022/05/20 07:58:07;;;;;;;11.70;4.45;;;;;;;22.44;37.95;101541.81;4853790;29;20059;-74
2022/05/20 08:00:34;;;;;;;8.18;3.97;;;;;;;22.74;37.89;101502.50;4862709;29;20078;-74
2022/05/20 08:03:01;;;;;;;12.00;4.60;;;;;;;22.57;40.35;101544.09;4845940;29;20048;-73
2022/05/20 08:05:30;;;;;;;18.63;4.55;;;;;;;22.69;40.67;101495.56;4845870;29;20104;-73
2022/05/20 08:08:02;;;;;;;9.48;3.58;;;;;;;22.97;38.35;101547.25;4847326;29;20045;-73
2022/05/20 08:10:34;;;;;;;10.45;4.28;;;;;;;23.02;38.09;101498.94;4853819;29;20084;-74
2022/05/20 08:13:00;;;;;;;21.13;4.93;;;;;;;23.39;37.87;101527.97;4844989;29;20061;-73
2022/05/20 08:15:27;;;;;;;13.75;4.35;;;;;;;23.44;37.54;101535.84;4860727;29;20034;-74
2022/05/20 08:17:53;;;;;;;8.68;4.25;;;;;;;23.34;37.89;101539.75;4847257;29;20144;-74
2022/05/20 08:20:27;;;;;;;10.82;5.13;;;;;;;23.60;39.48;101531.69;4848327;29;20592;-74
2022/05/20 08:22:54;;;;;;;8.15;4.75;;;;;;;23.76;40.24;101521.31;4851715;29;20117;-74
2022/05/20 08:25:21;;;;;;;14.70;6.47;;;;;;;24.11;38.46;101537.84;4848544;29;20487;-74
2022/05/20 08:27:47;;;;;;;13.95;4.05;;;;;;;24.34;38.85;101523.53;4848450;29;20053;-74
2022/05/20 08:30:17;;;;;;;10.40;5.97;;;;;;;24.41;39.38;101524.16;4845378;29;20057;-74
2022/05/20 08:32:44;;;;;;;10.00;5.63;;;;;;;24.33;38.96;101500.34;4845072;29;20406;-74
2022/05/20 08:35:12;;;;;;;13.02;5.75;;;;;;;24.37;39.21;101468.88;4847983;29;20089;-74
2022/05/20 08:37:45;;;;;;;9.77;4.82;;;;;;;24.87;37.83;101521.47;4847484;29;20525;-74
2022/05/20 08:40:18;;;;;;;6.07;3.28;;;;;;;25.19;37.22;101512.03;4851265;29;20098;-74
2022/05/20 08:42:48;;;;;;;12.93;4.93;;;;;;;24.14;33.63;101470.69;4858362;29;20546;-74
2022/05/20 08:45:19;;;;;;;7.93;3.47;;;;;;;24.74;36.28;101484.38;4843808;29;20076;-75
2022/05/20 08:47:47;;;;;;;8.20;4.57;;;;;;;24.97;37.71;101504.88;4847233;29;20046;-73
2022/05/20 08:50:23;;;;;;;12.18;5.20;;;;;;;25.18;36.58;101464.63;4850082;29;20135;-73
2022/05/20 08:52:55;;;;;;;9.52;4.63;;;;;;;25.26;34.72;101514.41;4846885;29;20058;-74
2022/05/20 08:55:24;;;;;;;17.52;5.70;;;;;;;25.38;36.59;101478.06;4847069;29;20132;-73
2022/05/20 08:58:01;;;;;;;9.20;4.90;;;;;;;25.43;34.82;101467.09;4838629;29;20067;-74
2022/05/20 09:00:29;;;;;;;7.55;5.03;;;;;;;25.75;38.66;101464.72;4859981;29;20053;-73
2022/05/20 09:02:55;;;;;;;18.13;4.60;;;;;;;26.09;34.51;101485.56;4848939;29;20068;-73
2022/05/20 09:05:28;;;;;;;10.45;4.85;;;;;;;25.97;34.21;101489.72;4861795;29;20384;-74
2022/05/20 09:08:00;;;;;;;16.33;9.00;;;;;;;26.03;38.11;101432.06;4848788;29;20056;-75
2022/05/20 09:10:49;;;;;;;20.00;10.32;;;;;;;25.90;37.57;101456.00;4847408;29;20072;-73
2022/05/20 09:16:27;;;;;;;31.05;14.43;;;;;;;26.05;35.83;101476.75;4839855;29;20574;-74
2022/05/20 09:19:06;;;;;;;33.40;13.93;;;;;;;25.59;36.84;101475.31;4851807;29;20041;-74
2022/05/20 09:21:39;;;;;;;28.17;9.38;;;;;;;25.47;32.53;101444.50;4845122;29;20053;-74
2022/05/20 09:24:21;;;;;;;13.40;7.53;;;;;;;25.31;35.57;101478.38;4849633;29;20582;-74
2022/05/20 09:27:01;;;;;;;12.27;6.45;;;;;;;25.74;32.09;101422.66;4845155;29;20077;-74
2022/05/20 09:29:38;;;;;;;28.27;8.18;;;;;;;26.59;34.09;101476.84;4848491;29;20049;-73
2022/05/20 09:32:07;;;;;;;17.42;7.00;;;;;;;26.31;30.57;101477.31;4838705;29;20053;-74
2022/05/20 09:34:41;;;;;;;15.57;6.65;;;;;;;25.96;30.43;101434.16;4838906;29;20053;-74
2022/05/20 09:37:14;;;;;;;42.35;15.27;;;;;;;27.04;32.39;101448.53;4853660;29;20096;-74
2022/05/20 09:39:43;;;;;;;32.42;14.75;;;;;;;26.60;29.97;101435.53;4845786;29;20048;-74
2022/05/20 09:42:27;;;;;;;39.42;14.57;;;;;;;26.90;30.97;101422.31;4844976;29;20049;-74
2022/05/20 09:44:55;;;;;;;43.88;18.33;;;;;;;26.46;28.11;101428.13;4847167;29;20129;-74
2022/05/20 09:47:50;;;;;;;55.10;20.25;;;;;;;26.77;29.56;101423.91;4846913;29;20065;-74
2022/05/20 09:50:38;;;;;;;36.47;14.88;;;;;;;26.63;28.67;101418.34;4843724;29;20061;-73
2022/05/20 09:53:24;;;;;;;25.65;8.93;;;;;;;25.84;29.29;101426.66;4844731;29;20080;-74
2022/05/20 09:55:50;;;;;;;71.07;23.95;;;;;;;27.22;31.42;101452.09;4846838;29;20053;-74
2022/05/20 09:58:18;;;;;;;69.20;21.77;;;;;;;26.72;29.44;101413.38;4852246;29;20049;-74
2022/05/20 10:00:57;;;;;;;45.00;13.52;;;;;;;27.53;30.13;101427.06;4835735;29;20575;-74
2022/05/20 10:03:36;;;;;;;59.55;19.40;;;;;;;28.26;28.81;101439.19;4848168;29;20455;-74
2022/05/20 10:06:23;;;;;;;77.03;24.65;;;;;;;27.53;26.63;101420.78;4841070;29;20052;-74
2022/05/20 10:09:11;;;;;;;92.28;25.98;;;;;;;27.53;26.71;101435.16;4846035;29;20052;-74
2022/05/20 10:12:05;;;;;;;76.32;21.38;;;;;;;27.86;27.98;101430.69;4845167;29;20057;-74
2022/05/20 10:14:43;;;;;;;80.50;24.23;;;;;;;27.58;25.88;101381.84;4848069;29;20058;-74
2022/05/20 10:17:21;;;;;;;79.35;24.05;;;;;;;27.79;25.87;101417.53;4851598;29;20121;-74
2022/05/20 10:20:05;;;;;;;71.80;21.13;;;;;;;28.59;27.41;101417.50;4845163;29;20464;-74
2022/05/20 10:22:49;;;;;;;55.92;19.00;;;;;;;27.57;28.70;101354.94;4846790;29;20066;-74
2022/05/20 10:25:50;;;;;;;60.38;16.25;;;;;;;27.89;26.16;101371.19;4866021;29;20049;-74
2022/05/20 10:34:21;;;;;;;59.85;16.05;;;;;;;28.35;27.22;101390.06;4849258;29;20070;-76
2022/05/20 10:37:03;;;;;;;71.03;21.23;;;;;;;28.31;29.17;101386.69;4865375;29;20037;-74
2022/05/20 10:40:06;;;;;;;32.63;10.32;;;;;;;28.29;27.33;101393.16;4838138;29;20096;-73
2022/05/20 10:42:54;;;;;;;58.80;15.65;;;;;;;27.75;27.45;101339.56;4851504;29;20088;-74
2022/05/20 10:49:18;;;;;;;71.35;21.55;;;;;;;27.98;29.99;101340.97;4849657;29;20516;-74
2022/05/20 10:51:59;;;;;;;52.58;13.63;;;;;;;28.18;28.46;101275.88;4830417;29;20897;-74
2022/05/20 10:54:44;;;;;;;54.25;18.10;;;;;;;28.19;26.47;101344.22;4850731;29;20094;-74
2022/05/20 10:57:18;;;;;;;37.15;13.02;;;;;;;27.40;28.64;101323.53;4850325;29;20042;-74
2022/05/20 11:00:03;;;;;;;39.08;11.93;;;;;;;28.32;25.87;101371.34;4852057;29;20113;-73
2022/05/20 11:02:53;;;;;;;52.85;16.38;;;;;;;27.98;28.62;101358.00;4845978;29;20054;-74
2022/05/20 11:05:37;;;;;;;67.13;18.15;;;;;;;27.41;27.51;101314.50;4850291;29;20120;-73
2022/05/20 11:08:24;;;;;;;41.35;12.73;;;;;;;27.94;29.25;101326.78;4862735;29;20038;-74
2022/05/20 11:11:22;;;;;;;34.13;12.27;;;;;;;27.31;27.20;101308.75;4842932;29;20189;-73
2022/05/20 11:14:06;;;;;;;37.13;11.15;;;;;;;27.54;27.24;101298.50;4838182;29;20077;-74
2022/05/20 11:17:14;;;;;;;38.72;13.07;;;;;;;27.77;27.76;101348.44;4848383;29;20050;-74
2022/05/20 11:19:54;;;;;;;37.90;10.88;;;;;;;27.65;27.78;101317.66;4859906;29;20053;-74
2022/05/20 11:22:44;;;;;;;25.77;8.20;;;;;;;28.11;28.97;101306.03;4846946;29;20065;-73
2022/05/20 11:25:13;;;;;;;34.65;11.70;;;;;;;27.92;27.21;101334.06;4848714;29;20077;-74
2022/05/20 11:28:00;;;;;;;39.00;12.77;;;;;;;27.47;28.60;101316.00;4848152;29;20458;-74
2022/05/20 11:30:29;;;;;;;39.00;14.68;;;;;;;27.86;29.72;101317.38;4842488;29;20122;-73
2022/05/20 11:33:05;;;;;;;42.00;14.45;;;;;;;27.31;29.92;101283.63;4850843;29;20073;-74
2022/05/20 11:35:38;;;;;;;42.30;13.18;;;;;;;27.58;28.65;101278.47;4847663;29;20069;-74
2022/05/20 11:38:41;;;;;;;55.95;18.73;;;;;;;27.91;28.42;101297.28;4861437;29;20057;-74
2022/05/20 11:41:49;;;;;;;40.58;14.80;;;;;;;27.73;29.66;101272.22;4846009;29;20065;-74
2022/05/20 11:44:42;;;;;;;45.78;16.50;;;;;;;27.70;28.89;101276.94;4819748;29;20045;-74
2022/05/20 11:47:21;;;;;;;39.65;13.35;;;;;;;27.53;30.25;101259.00;4846303;29;20078;-75
2022/05/20 11:50:22;;;;;;;45.50;17.23;;;;;;;27.84;28.31;101297.72;4850617;29;20559;-75
2022/05/20 11:53:11;;;;;;;48.17;17.33;;;;;;;27.45;27.17;101248.66;4861277;29;20053;-74
2022/05/20 11:55:55;;;;;;;46.63;15.93;;;;;;;27.50;29.25;101251.09;4848366;29;20576;-74
2022/05/20 11:58:43;;;;;;;62.30;21.00;;;;;;;27.18;30.01;101267.22;4848273;29;20124;-74
2022/05/20 12:01:11;;;;;;;64.00;19.75;;;;;;;28.11;33.41;101290.69;4846925;29;20136;-74
2022/05/20 12:06:30;;;;;;;32.60;9.48;;;;;;;27.65;27.72;101242.13;4846081;29;20109;-74
2022/05/20 12:09:03;;;;;;;48.75;13.77;;;;;;;27.17;28.19;101242.09;4837418;29;20585;-74
2022/05/20 12:11:37;;;;;;;33.65;14.18;;;;;;;27.29;28.94;101229.78;4847173;29;20456;-75
2022/05/20 12:14:14;;;;;;;41.70;12.48;;;;;;;27.52;31.03;101258.13;4847383;29;20054;-74
2022/05/20 12:17:03;;;;;;;21.50;10.05;;;;;;;27.20;29.57;101222.22;4843478;29;20057;-74
2022/05/20 12:25:39;;;;;;;5.55;2.65;;;;;;;27.24;27.15;101261.53;4843918;29;20591;-74
2022/05/20 12:28:36;;;;;;;8.27;3.50;;;;;;;27.12;28.25;101221.78;4843841;29;20081;-75